Time;durP1;ratioP1;P1;durP2;ratioP2;P2;SDS_P1;SDS_P2;PMS_P1;PMS_P2;Temp;Humidity;BMP_temperature;BMP_pressure;BME280_temperature;BME280_humidity;BME280_pressure;Samples;Min_cycle;Max_cycle;Signal;HPM_P1;HPM_P2
2022/10/10 00:00:47;;;;;;;;;;;10.50;99.90;;;;;;5083424;28;19931;-54
2022/10/10 00:03:15;;;;;;;;;;;10.50;99.90;;;;;;5064070;28;19935;-54
2022/10/10 00:05:43;;;;;;;;;;;10.50;99.90;;;;;;5071760;28;20292;-54
2022/10/10 00:08:11;;;;;;;;;;;10.50;99.90;;;;;;5089713;28;20296;-53
2022/10/10 00:10:38;;;;;;;;;;;10.50;99.90;;;;;;5084219;28;19924;-53
2022/10/10 00:13:05;;;;;;;;;;;10.60;99.90;;;;;;5085368;28;19924;-54
2022/10/10 00:15:33;;;;;;;;;;;10.60;99.90;;;;;;5079966;28;19924;-54
2022/10/10 00:18:01;;;;;;;;;;;10.60;99.90;;;;;;5065742;28;19924;-54
2022/10/10 00:20:30;;;;;;;;;;;10.60;99.90;;;;;;5076146;28;20469;-54
2022/10/10 00:22:57;;;;;;;;;;;10.60;99.90;;;;;;5086381;28;20292;-54
2022/10/10 00:25:25;;;;;;;;;;;10.60;99.90;;;;;;5076859;28;19954;-54
2022/10/10 00:27:52;;;;;;;;;;;10.70;99.90;;;;;;5071359;28;20377;-54
2022/10/10 00:30:20;;;;;;;;;;;10.70;99.90;;;;;;5078035;28;19935;-54
2022/10/10 00:32:48;;;;;;;;;;;10.70;99.90;;;;;;5080985;28;19931;-54
2022/10/10 00:35:15;;;;;;;;;;;10.70;99.90;;;;;;5071901;28;19924;-53
2022/10/10 00:37:43;;;;;;;;;;;10.70;99.90;;;;;;5096565;28;19933;-54
2022/10/10 00:40:10;;;;;;;;;;;10.70;99.90;;;;;;5082017;28;20402;-54
2022/10/10 00:42:38;;;;;;;;;;;10.80;99.90;;;;;;5072466;28;20275;-54
2022/10/10 00:45:24;;;;;;;;;;;10.80;99.90;;;;;;5070037;28;19936;-54
2022/10/10 00:47:54;;;;;;;;;;;10.80;99.90;;;;;;5065973;28;19947;-54
2022/10/10 00:50:22;;;;;;;;;;;10.80;99.90;;;;;;5076809;28;20517;-54
2022/10/10 00:52:50;;;;;;;;;;;10.80;99.90;;;;;;5075373;28;19924;-54
2022/10/10 00:55:18;;;;;;;;;;;10.80;99.90;;;;;;5084653;28;19935;-54
2022/10/10 00:57:46;;;;;;;;;;;10.80;99.90;;;;;;5086341;28;20456;-55
2022/10/10 01:00:14;;;;;;;;;;;10.80;99.90;;;;;;5079534;28;19934;-54
2022/10/10 01:02:41;;;;;;;;;;;10.70;99.90;;;;;;5081572;28;20383;-54
2022/10/10 01:05:09;;;;;;;;;;;10.80;99.90;;;;;;5081933;28;19931;-55
2022/10/10 01:07:36;;;;;;;;;;;10.70;99.90;;;;;;5088616;28;19928;-54
2022/10/10 01:10:06;;;;;;;;;;;10.70;99.90;;;;;;5092497;28;19938;-54
2022/10/10 01:12:47;;;;;;;;;;;10.70;99.90;;;;;;5071551;28;19924;-54
2022/10/10 01:15:34;;;;;;;;;;;10.70;99.90;;;;;;5084679;28;19939;-54
2022/10/10 01:18:04;;;;;;;;;;;10.70;99.90;;;;;;5085631;28;19928;-54
2022/10/10 01:20:44;;;;;;;;;;;10.60;99.90;;;;;;5091274;28;19928;-55
2022/10/10 01:23:11;;;;;;;;;;;10.60;99.90;;;;;;5084214;28;19924;-54
2022/10/10 01:25:45;;;;;;;;;;;10.50;99.90;;;;;;5078976;28;19924;-55
2022/10/10 01:28:19;;;;;;;;;;;10.40;99.90;;;;;;5077883;28;19924;-54
2022/10/10 01:30:47;;;;;;;;;;;10.30;99.90;;;;;;5079502;28;19939;-54
2022/10/10 01:33:17;;;;;;;;;;;10.20;99.90;;;;;;5073406;28;20383;-54
2022/10/10 01:36:02;;;;;;;;;;;10.20;99.90;;;;;;5078655;28;19928;-54
2022/10/10 01:38:34;;;;;;;;;;;10.00;99.90;;;;;;5082012;28;19928;-54
2022/10/10 01:41:05;;;;;;;;;;;10.00;99.90;;;;;;5076499;28;19928;-54
2022/10/10 01:43:34;;;;;;;;;;;10.00;99.90;;;;;;5077957;28;20501;-54
2022/10/10 01:46:12;;;;;;;;;;;9.90;99.90;;;;;;5070884;28;19932;-55
2022/10/10 01:48:40;;;;;;;;;;;9.90;99.90;;;;;;5071738;28;19932;-55
2022/10/10 01:51:08;;;;;;;;;;;9.90;99.90;;;;;;5077027;28;19932;-54
2022/10/10 01:53:50;;;;;;;;;;;9.90;99.90;;;;;;5073999;28;20414;-53
2022/10/10 01:56:36;;;;;;;;;;;9.90;99.90;;;;;;5078188;28;19933;-54
2022/10/10 01:59:09;;;;;;;;;;;9.90;99.90;;;;;;5075161;28;19928;-54
2022/10/10 02:01:45;;;;;;;;;;;9.90;99.90;;;;;;5087240;28;19952;-54
2022/10/10 02:04:15;;;;;;;;;;;9.90;99.90;;;;;;5072397;28;19924;-54
2022/10/10 02:06:51;;;;;;;;;;;9.90;99.90;;;;;;5079640;28;19936;-55
2022/10/10 02:09:22;;;;;;;;;;;9.90;99.90;;;;;;5073344;28;19923;-55
2022/10/10 02:11:50;;;;;;;;;;;9.90;99.90;;;;;;5077526;28;19928;-54
2022/10/10 02:14:27;;;;;;;;;;;9.90;99.90;;;;;;5077750;28;19928;-54
2022/10/10 02:16:54;;;;;;;;;;;10.00;99.90;;;;;;5073839;28;20315;-54
2022/10/10 02:19:23;;;;;;;;;;;9.90;99.90;;;;;;5075681;28;19924;-55
2022/10/10 02:21:51;;;;;;;;;;;9.90;99.90;;;;;;5076270;28;19925;-54
2022/10/10 02:24:20;;;;;;;;;;;9.90;99.90;;;;;;5073580;28;19932;-55
2022/10/10 02:26:51;;;;;;;;;;;9.90;99.90;;;;;;5073527;28;19935;-55
2022/10/10 02:29:19;;;;;;;;;;;9.90;99.90;;;;;;5079663;28;19929;-56
2022/10/10 02:31:47;;;;;;;;;;;9.90;99.90;;;;;;5082284;28;20375;-55
2022/10/10 02:34:14;;;;;;;;;;;9.90;99.90;;;;;;5077128;28;19955;-56
2022/10/10 02:36:43;;;;;;;;;;;9.90;99.90;;;;;;5073272;28;19924;-55
2022/10/10 02:39:12;;;;;;;;;;;9.90;99.90;;;;;;5080563;28;19931;-60
2022/10/10 02:41:41;;;;;;;;;;;9.90;99.90;;;;;;5086672;28;20399;-56
2022/10/10 02:44:10;;;;;;;;;;;9.90;99.90;;;;;;5089965;28;19924;-54
2022/10/10 02:46:37;;;;;;;;;;;9.90;99.90;;;;;;5079085;28;20554;-54
2022/10/10 02:49:08;;;;;;;;;;;9.90;99.90;;;;;;5056461;28;19932;-55
2022/10/10 02:51:35;;;;;;;;;;;9.90;99.90;;;;;;5076085;28;19924;-55
2022/10/10 02:54:03;;;;;;;;;;;9.90;99.90;;;;;;5072234;28;20312;-54
2022/10/10 02:56:31;;;;;;;;;;;9.90;99.90;;;;;;5081135;28;20414;-54
2022/10/10 02:58:58;;;;;;;;;;;9.90;99.90;;;;;;5072931;28;19924;-54
2022/10/10 03:01:25;;;;;;;;;;;9.80;99.90;;;;;;5092327;28;19924;-54
2022/10/10 03:03:53;;;;;;;;;;;9.80;99.90;;;;;;5080153;28;20555;-54
2022/10/10 03:06:20;;;;;;;;;;;9.80;99.90;;;;;;5072149;28;19931;-55
2022/10/10 03:08:48;;;;;;;;;;;9.80;99.90;;;;;;5071029;28;20351;-54
2022/10/10 03:11:15;;;;;;;;;;;9.80;99.90;;;;;;5089749;28;19931;-55
2022/10/10 03:13:42;;;;;;;;;;;9.80;99.90;;;;;;5078330;28;19924;-54
2022/10/10 03:16:10;;;;;;;;;;;9.90;99.90;;;;;;5071851;28;19929;-55
2022/10/10 03:18:37;;;;;;;;;;;9.80;99.90;;;;;;5075927;28;19935;-54
2022/10/10 03:21:05;;;;;;;;;;;9.80;99.90;;;;;;5071696;28;19948;-54
2022/10/10 03:23:34;;;;;;;;;;;9.80;99.90;;;;;;5072538;28;19924;-55
2022/10/10 03:26:02;;;;;;;;;;;9.70;99.90;;;;;;5071054;28;19931;-54
2022/10/10 03:28:29;;;;;;;;;;;9.70;99.90;;;;;;5072185;28;19924;-54
2022/10/10 03:30:57;;;;;;;;;;;9.70;99.90;;;;;;5080574;28;20311;-55
2022/10/10 03:33:24;;;;;;;;;;;9.70;99.90;;;;;;5113018;28;20375;-54
2022/10/10 03:35:52;;;;;;;;;;;9.70;99.90;;;;;;5112747;28;19923;-54
2022/10/10 03:38:19;;;;;;;;;;;9.60;99.90;;;;;;5111455;28;19924;-54
2022/10/10 03:40:46;;;;;;;;;;;9.60;99.90;;;;;;5112648;28;20272;-54
2022/10/10 03:43:14;;;;;;;;;;;9.60;99.90;;;;;;5112692;28;20275;-55
2022/10/10 03:45:42;;;;;;;;;;;9.60;99.90;;;;;;5112616;28;19931;-54
2022/10/10 03:48:10;;;;;;;;;;;9.50;99.90;;;;;;5112765;28;20287;-54
2022/10/10 03:50:38;;;;;;;;;;;9.50;99.90;;;;;;5112338;28;19928;-54
2022/10/10 03:53:05;;;;;;;;;;;9.40;99.90;;;;;;5094427;28;19924;-55
2022/10/10 03:55:32;;;;;;;;;;;9.30;99.90;;;;;;5092218;28;19931;-54
2022/10/10 03:58:00;;;;;;;;;;;9.30;99.90;;;;;;5092093;28;19931;-55
2022/10/10 04:00:27;;;;;;;;;;;9.10;99.90;;;;;;5092977;28;19935;-55
2022/10/10 04:02:54;;;;;;;;;;;9.10;99.90;;;;;;5111272;28;19923;-55
2022/10/10 04:05:22;;;;;;;;;;;8.90;99.90;;;;;;5112412;28;19939;-55
2022/10/10 04:07:49;;;;;;;;;;;8.90;99.90;;;;;;5112295;28;20367;-55
2022/10/10 04:10:17;;;;;;;;;;;8.80;99.90;;;;;;5112335;28;19924;-55
2022/10/10 04:12:44;;;;;;;;;;;8.70;99.90;;;;;;5111420;28;19930;-55
2022/10/10 04:15:12;;;;;;;;;;;8.60;99.90;;;;;;5112350;28;20368;-54
2022/10/10 04:17:39;;;;;;;;;;;8.60;99.90;;;;;;5112289;28;19923;-55
2022/10/10 04:20:06;;;;;;;;;;;8.50;99.90;;;;;;5112150;28;19924;-55
2022/10/10 04:22:34;;;;;;;;;;;8.40;99.90;;;;;;5112315;28;20383;-55
2022/10/10 04:25:01;;;;;;;;;;;8.40;99.90;;;;;;5112356;28;19931;-55
2022/10/10 04:27:28;;;;;;;;;;;8.30;99.90;;;;;;5112222;28;20318;-55
2022/10/10 04:29:56;;;;;;;;;;;8.30;99.90;;;;;;5111923;28;19924;-55
2022/10/10 04:32:23;;;;;;;;;;;8.20;99.90;;;;;;5112303;28;19931;-55
2022/10/10 04:34:51;;;;;;;;;;;8.30;99.90;;;;;;5112231;28;20367;-55
2022/10/10 04:37:21;;;;;;;;;;;8.20;99.90;;;;;;5112121;28;19931;-55
2022/10/10 04:39:48;;;;;;;;;;;8.10;99.90;;;;;;5112104;28;19924;-54
2022/10/10 04:42:15;;;;;;;;;;;8.10;99.90;;;;;;5113174;28;19948;-55
2022/10/10 04:44:43;;;;;;;;;;;8.00;99.90;;;;;;5116131;28;19930;-55
2022/10/10 04:47:12;;;;;;;;;;;8.00;99.90;;;;;;5110070;28;19930;-54
2022/10/10 04:49:40;;;;;;;;;;;8.00;99.90;;;;;;5071809;28;20331;-53
2022/10/10 04:52:08;;;;;;;;;;;7.90;99.90;;;;;;5072175;28;19928;-54
2022/10/10 04:54:36;;;;;;;;;;;7.90;99.90;;;;;;5070787;28;19931;-54
2022/10/10 04:57:04;;;;;;;;;;;7.80;99.90;;;;;;5071787;28;19924;-54
2022/10/10 04:59:31;;;;;;;;;;;7.80;99.90;;;;;;5111991;28;20499;-54
2022/10/10 05:01:58;;;;;;;;;;;7.70;99.90;;;;;;5100629;28;19928;-54
2022/10/10 05:04:28;;;;;;;;;;;7.70;99.90;;;;;;5070088;28;20299;-54
2022/10/10 05:06:55;;;;;;;;;;;7.70;99.90;;;;;;5069297;28;19932;-54
2022/10/10 05:09:23;;;;;;;;;;;7.60;99.90;;;;;;5109760;28;19931;-54
2022/10/10 05:11:50;;;;;;;;;;;7.60;99.90;;;;;;5110772;28;20006;-54
2022/10/10 05:14:17;;;;;;;;;;;7.60;99.90;;;;;;5091645;28;20383;-54
2022/10/10 05:16:45;;;;;;;;;;;7.60;99.90;;;;;;5089142;28;19924;-53
2022/10/10 05:19:12;;;;;;;;;;;7.50;99.90;;;;;;5082873;28;20383;-54
2022/10/10 05:21:40;;;;;;;;;;;7.50;99.90;;;;;;5069634;28;20258;-54
2022/10/10 05:24:07;;;;;;;;;;;7.50;99.90;;;;;;5090520;28;19936;-54
2022/10/10 05:26:35;;;;;;;;;;;7.40;99.90;;;;;;5091384;28;19931;-54
2022/10/10 05:29:09;;;;;;;;;;;7.40;99.90;;;;;;5091600;28;19924;-54
2022/10/10 05:31:36;;;;;;;;;;;7.30;99.90;;;;;;5100668;28;20123;-60
2022/10/10 05:34:04;;;;;;;;;;;7.30;99.90;;;;;;5091108;28;19932;-53
2022/10/10 05:36:31;;;;;;;;;;;7.30;99.90;;;;;;5089988;28;19924;-53
2022/10/10 05:39:00;;;;;;;;;;;7.30;99.90;;;;;;5087720;28;20357;-53
2022/10/10 05:41:27;;;;;;;;;;;7.30;99.90;;;;;;5089077;28;19924;-54
2022/10/10 05:43:55;;;;;;;;;;;7.20;99.90;;;;;;5090750;28;20372;-54
2022/10/10 05:46:23;;;;;;;;;;;7.20;99.90;;;;;;5089628;28;19924;-53
2022/10/10 05:48:52;;;;;;;;;;;7.10;99.90;;;;;;5091115;28;19931;-53
2022/10/10 05:51:19;;;;;;;;;;;7.10;99.90;;;;;;5087809;28;19936;-54
2022/10/10 05:53:49;;;;;;;;;;;7.10;99.90;;;;;;5086189;28;19924;-54
2022/10/10 05:56:52;;;;;;;;;;;7.00;99.90;;;;;;5088908;28;19923;-53
2022/10/10 05:59:57;;;;;;;;;;;7.00;99.90;;;;;;5085804;28;20367;-54
2022/10/10 06:02:24;;;;;;;;;;;7.00;99.90;;;;;;5106262;28;19923;-53
2022/10/10 06:04:51;;;;;;;;;;;7.00;99.90;;;;;;5075059;28;19924;-53
2022/10/10 06:07:19;;;;;;;;;;;7.00;99.90;;;;;;5070429;28;19924;-53
2022/10/10 06:09:46;;;;;;;;;;;6.90;99.90;;;;;;5104533;28;19924;-53
2022/10/10 06:12:14;;;;;;;;;;;6.90;99.90;;;;;;5109814;28;19923;-53
2022/10/10 06:14:41;;;;;;;;;;;6.90;99.90;;;;;;5110933;28;19931;-53
2022/10/10 06:17:08;;;;;;;;;;;6.90;99.90;;;;;;5111121;28;19989;-53
2022/10/10 06:19:36;;;;;;;;;;;6.90;99.90;;;;;;5081120;28;19932;-53
2022/10/10 06:22:03;;;;;;;;;;;6.80;99.90;;;;;;5073248;28;19925;-53
2022/10/10 06:24:30;;;;;;;;;;;6.80;99.90;;;;;;5109529;28;20398;-54
2022/10/10 06:26:58;;;;;;;;;;;6.80;99.90;;;;;;5107761;28;20272;-53
2022/10/10 06:29:25;;;;;;;;;;;6.70;99.90;;;;;;5107080;28;19924;-54
2022/10/10 06:31:53;;;;;;;;;;;6.70;99.90;;;;;;5106672;28;19928;-54
2022/10/10 06:34:20;;;;;;;;;;;6.70;99.90;;;;;;5084272;28;19935;-54
2022/10/10 06:36:49;;;;;;;;;;;6.60;99.90;;;;;;5068607;28;20264;-53
2022/10/10 06:39:17;;;;;;;;;;;6.60;99.90;;;;;;5095374;28;19923;-54
2022/10/10 06:41:44;;;;;;;;;;;6.60;99.90;;;;;;5093531;28;20002;-54
2022/10/10 06:44:11;;;;;;;;;;;6.60;99.90;;;;;;5089341;28;19947;-54
2022/10/10 06:46:39;;;;;;;;;;;6.50;99.90;;;;;;5088529;28;19924;-54
2022/10/10 06:49:07;;;;;;;;;;;6.50;99.90;;;;;;5080658;28;19924;-54
2022/10/10 06:51:36;;;;;;;;;;;6.50;99.90;;;;;;5064579;28;20375;-54
2022/10/10 06:54:04;;;;;;;;;;;6.50;99.90;;;;;;5084431;28;19935;-56
2022/10/10 06:56:31;;;;;;;;;;;6.50;99.90;;;;;;5087342;27;19935;-55
2022/10/10 06:58:59;;;;;;;;;;;6.60;99.90;;;;;;5074695;28;19928;-56
2022/10/10 07:01:26;;;;;;;;;;;6.60;99.90;;;;;;5073641;28;20392;-55
2022/10/10 07:03:54;;;;;;;;;;;6.60;99.90;;;;;;5064480;28;19939;-55
2022/10/10 07:06:21;;;;;;;;;;;6.60;99.90;;;;;;5065877;28;20376;-55
2022/10/10 07:08:48;;;;;;;;;;;6.70;99.90;;;;;;5075633;28;19928;-56
2022/10/10 07:11:16;;;;;;;;;;;6.70;99.90;;;;;;5069148;28;19924;-55
2022/10/10 07:13:43;;;;;;;;;;;6.80;99.90;;;;;;5085928;28;19924;-55
2022/10/10 07:16:11;;;;;;;;;;;6.90;99.90;;;;;;5070796;28;20383;-55
2022/10/10 07:18:38;;;;;;;;;;;7.10;99.90;;;;;;5072712;28;19939;-55
2022/10/10 07:21:06;;;;;;;;;;;7.20;99.90;;;;;;5077225;28;20291;-54
2022/10/10 07:23:35;;;;;;;;;;;7.40;99.90;;;;;;5071003;28;19929;-54
2022/10/10 07:26:04;;;;;;;;;;;7.50;99.90;;;;;;5070605;28;19925;-55
2022/10/10 07:28:32;;;;;;;;;;;7.60;99.90;;;;;;5060931;28;19928;-55
2022/10/10 07:31:01;;;;;;;;;;;7.70;99.90;;;;;;5079239;28;19927;-54
2022/10/10 07:33:36;;;;;;;;;;;7.60;99.90;;;;;;5096123;28;19924;-55
2022/10/10 07:36:03;;;;;;;;;;;7.80;99.90;;;;;;5089205;28;20544;-55
2022/10/10 07:38:31;;;;;;;;;;;7.90;99.90;;;;;;5088829;28;20003;-55
2022/10/10 07:40:58;;;;;;;;;;;7.90;99.90;;;;;;5089140;28;19924;-55
2022/10/10 07:43:26;;;;;;;;;;;8.00;99.90;;;;;;5088460;28;19924;-55
2022/10/10 07:45:53;;;;;;;;;;;7.90;99.90;;;;;;5081926;28;19925;-55
2022/10/10 07:48:21;;;;;;;;;;;7.90;99.90;;;;;;5081876;28;19946;-55
2022/10/10 07:50:48;;;;;;;;;;;7.90;99.90;;;;;;5068104;28;20314;-55
2022/10/10 07:53:16;;;;;;;;;;;7.90;99.90;;;;;;5072175;28;19932;-55
2022/10/10 07:55:43;;;;;;;;;;;8.00;99.90;;;;;;5077317;28;19925;-55
2022/10/10 07:58:11;;;;;;;;;;;7.90;99.90;;;;;;5088622;28;19924;-56
2022/10/10 08:00:42;;;;;;;;;;;8.00;99.90;;;;;;5091013;28;20354;-55
2022/10/10 08:03:09;;;;;;;;;;;8.00;99.90;;;;;;5085310;28;19928;-55
2022/10/10 08:05:42;;;;;;;;;;;8.10;99.90;;;;;;5088794;28;20383;-55
2022/10/10 08:08:09;;;;;;;;;;;8.20;99.90;;;;;;5097162;28;19928;-55
2022/10/10 08:10:41;;;;;;;;;;;8.30;99.90;;;;;;5075799;28;20291;-55
2022/10/10 08:13:08;;;;;;;;;;;8.30;99.90;;;;;;5075881;28;19924;-55
2022/10/10 08:15:38;;;;;;;;;;;8.30;99.90;;;;;;5100580;28;19932;-55
2022/10/10 08:18:05;;;;;;;;;;;8.30;99.90;;;;;;5089840;28;19928;-56
2022/10/10 08:20:33;;;;;;;;;;;8.30;99.90;;;;;;5084832;28;19924;-55
2022/10/10 08:23:00;;;;;;;;;;;8.50;99.90;;;;;;5089848;28;19931;-56
2022/10/10 08:25:27;;;;;;;;;;;8.60;99.90;;;;;;5092924;28;19947;-55
2022/10/10 08:27:58;;;;;;;;;;;8.70;99.90;;;;;;5085959;28;19929;-55
2022/10/10 08:30:25;;;;;;;;;;;8.80;99.90;;;;;;5086085;28;19932;-55
2022/10/10 08:32:53;;;;;;;;;;;8.90;99.90;;;;;;5087834;28;19924;-55
2022/10/10 08:35:20;;;;;;;;;;;8.90;99.90;;;;;;5093761;28;20284;-54
2022/10/10 08:37:48;;;;;;;;;;;8.90;99.90;;;;;;5086669;28;20315;-55
2022/10/10 08:40:18;;;;;;;;;;;9.10;99.90;;;;;;5092521;28;19947;-55
2022/10/10 08:42:48;;;;;;;;;;;9.20;99.90;;;;;;5100133;28;19938;-55
2022/10/10 08:45:26;;;;;;;;;;;9.30;99.90;;;;;;5092309;28;19928;-55
2022/10/10 08:47:59;;;;;;;;;;;9.30;99.90;;;;;;5088361;28;19931;-55
2022/10/10 08:50:32;;;;;;;;;;;9.20;99.90;;;;;;5092244;28;19928;-55
2022/10/10 08:53:07;;;;;;;;;;;9.20;99.90;;;;;;5091955;28;19931;-55
2022/10/10 08:55:37;;;;;;;;;;;9.30;99.90;;;;;;5073091;28;20315;-54
2022/10/10 08:58:09;;;;;;;;;;;9.30;99.90;;;;;;5074987;28;20421;-55
2022/10/10 09:00:38;;;;;;;;;;;9.40;99.90;;;;;;5088290;28;19928;-54
2022/10/10 09:03:13;;;;;;;;;;;9.50;99.90;;;;;;5085064;28;20395;-55
2022/10/10 09:05:59;;;;;;;;;;;9.60;99.90;;;;;;5092073;28;19928;-55
2022/10/10 09:08:36;;;;;;;;;;;9.70;99.90;;;;;;5085690;28;19931;-55
2022/10/10 09:11:04;;;;;;;;;;;9.80;99.90;;;;;;5068236;28;19924;-55
2022/10/10 09:13:39;;;;;;;;;;;9.90;99.90;;;;;;5081285;28;20291;-55
2022/10/10 09:16:13;;;;;;;;;;;10.00;99.90;;;;;;5073888;28;19932;-55
2022/10/10 09:18:51;;;;;;;;;;;10.00;99.90;;;;;;5079096;28;19931;-55
2022/10/10 09:21:27;;;;;;;;;;;10.20;99.90;;;;;;5089941;28;19924;-55
2022/10/10 09:23:59;;;;;;;;;;;10.30;99.90;;;;;;5087489;28;20375;-55
2022/10/10 09:26:29;;;;;;;;;;;10.30;99.90;;;;;;5089341;28;20300;-55
2022/10/10 09:29:20;;;;;;;;;;;10.40;99.90;;;;;;5089742;28;19924;-55
2022/10/10 09:31:51;;;;;;;;;;;10.50;99.90;;;;;;5094656;28;20319;-57
2022/10/10 09:34:18;;;;;;;;;;;10.60;99.90;;;;;;5090377;28;19932;-55
2022/10/10 09:36:46;;;;;;;;;;;10.70;99.90;;;;;;5090122;28;19924;-55
2022/10/10 09:39:14;;;;;;;;;;;10.70;99.90;;;;;;5087395;28;19924;-55
2022/10/10 09:41:59;;;;;;;;;;;10.80;99.90;;;;;;5071163;28;19924;-55
2022/10/10 09:44:26;;;;;;;;;;;10.90;99.90;;;;;;5071002;28;19931;-55
2022/10/10 09:46:54;;;;;;;;;;;11.00;99.90;;;;;;5070595;28;19924;-55
2022/10/10 09:49:22;;;;;;;;;;;11.10;99.90;;;;;;5084015;28;19935;-55
2022/10/10 09:51:49;;;;;;;;;;;11.20;99.90;;;;;;5078415;28;19932;-55
2022/10/10 09:54:18;;;;;;;;;;;11.20;99.90;;;;;;5076829;28;19931;-55
2022/10/10 09:56:49;;;;;;;;;;;11.30;99.90;;;;;;5067529;28;19929;-56
2022/10/10 09:59:34;;;;;;;;;;;11.40;99.90;;;;;;5080290;28;19927;-55
2022/10/10 10:02:03;;;;;;;;;;;11.50;99.90;;;;;;5076003;28;19947;-55
2022/10/10 10:04:31;;;;;;;;;;;11.50;99.90;;;;;;5073902;28;19924;-56
2022/10/10 10:07:04;;;;;;;;;;;11.70;99.90;;;;;;5088760;28;19931;-56
2022/10/10 10:09:32;;;;;;;;;;;11.70;99.90;;;;;;5084917;28;19937;-55
2022/10/10 10:11:59;;;;;;;;;;;11.90;99.90;;;;;;5074648;28;19925;-55
2022/10/10 10:14:34;;;;;;;;;;;12.00;99.90;;;;;;5071126;28;19952;-56
2022/10/10 10:17:09;;;;;;;;;;;12.10;99.90;;;;;;5077976;28;19928;-55
2022/10/10 10:19:38;;;;;;;;;;;12.20;99.90;;;;;;5084060;28;20474;-55
2022/10/10 10:22:26;;;;;;;;;;;12.20;99.90;;;;;;5081153;28;19931;-55
2022/10/10 10:24:53;;;;;;;;;;;12.20;99.90;;;;;;5073460;28;20276;-55
2022/10/10 10:27:22;;;;;;;;;;;12.70;99.90;;;;;;5076757;28;20300;-55
2022/10/10 10:29:51;;;;;;;;;;;12.40;99.90;;;;;;5087730;28;20295;-55
2022/10/10 10:32:33;;;;;;;;;;;11.70;99.90;;;;;;5102405;28;19924;-55
2022/10/10 10:35:07;;;;;;;;;;;12.40;99.90;;;;;;5078900;28;19925;-55
2022/10/10 10:37:42;;;;;;;;;;;12.50;99.90;;;;;;5096441;28;19939;-55
2022/10/10 10:40:15;;;;;;;;;;;12.50;99.90;;;;;;5090787;28;19924;-55
2022/10/10 10:43:02;;;;;;;;;;;12.40;99.90;;;;;;5104461;28;19944;-55
2022/10/10 10:45:38;;;;;;;;;;;12.40;99.90;;;;;;5088632;28;19931;-56
2022/10/10 10:48:08;;;;;;;;;;;12.40;99.90;;;;;;5084286;28;19936;-55
2022/10/10 10:50:42;;;;;;;;;;;12.50;99.90;;;;;;5076517;28;20249;-55
2022/10/10 10:53:28;;;;;;;;;;;12.60;99.90;;;;;;5078816;28;19935;-55
2022/10/10 10:56:16;;;;;;;;;;;12.60;99.90;;;;;;5068232;28;19924;-57
2022/10/10 10:59:02;;;;;;;;;;;12.70;99.90;;;;;;5050622;28;19924;-55
2022/10/10 11:02:08;;;;;;;;;;;12.70;99.90;;;;;;5073739;28;19930;-55
2022/10/10 11:04:42;;;;;;;;;;;12.70;99.90;;;;;;5069030;28;19931;-55
2022/10/10 11:07:48;;;;;;;;;;;12.80;99.90;;;;;;5069376;28;19935;-58
2022/10/10 11:10:15;;;;;;;;;;;13.00;99.90;;;;;;5069465;28;20364;-56
2022/10/10 11:12:53;;;;;;;;;;;13.10;99.90;;;;;;5081154;28;19935;-55
2022/10/10 11:15:31;;;;;;;;;;;13.30;99.90;;;;;;5069626;28;20287;-55
2022/10/10 11:18:24;;;;;;;;;;;13.50;99.90;;;;;;5078620;28;19925;-55
2022/10/10 11:20:55;;;;;;;;;;;13.80;99.90;;;;;;5082974;28;19928;-54
2022/10/10 11:23:27;;;;;;;;;;;14.00;99.90;;;;;;5076786;28;20380;-54
2022/10/10 11:26:05;;;;;;;;;;;14.30;99.90;;;;;;5070278;28;20299;-55
2022/10/10 11:28:34;;;;;;;;;;;14.40;99.90;;;;;;5073845;28;21344;-55
2022/10/10 11:31:04;;;;;;;;;;;14.40;99.90;;;;;;5073013;28;19938;-55
2022/10/10 11:33:34;;;;;;;;;;;14.60;99.90;;;;;;5080300;28;19928;-56
2022/10/10 11:36:04;;;;;;;;;;;15.00;99.90;;;;;;5086920;28;20387;-55
2022/10/10 11:38:36;;;;;;;;;;;15.20;99.90;;;;;;5076989;28;20434;-55
2022/10/10 11:41:07;;;;;;;;;;;15.60;99.90;;;;;;5077251;28;19932;-56
2022/10/10 11:43:53;;;;;;;;;;;16.80;99.90;;;;;;5086469;28;19931;-55
2022/10/10 11:46:20;;;;;;;;;;;16.00;99.90;;;;;;5077843;28;19924;-54
2022/10/10 11:49:17;;;;;;;;;;;16.10;99.90;;;;;;5079752;28;19924;-55
2022/10/10 11:51:57;;;;;;;;;;;16.50;99.90;;;;;;5063714;28;20376;-55
2022/10/10 11:54:50;;;;;;;;;;;16.70;99.90;;;;;;5095016;28;19931;-56
2022/10/10 11:57:37;;;;;;;;;;;17.00;99.90;;;;;;5070732;28;19940;-56
2022/10/10 12:00:05;;;;;;;;;;;17.30;99.90;;;;;;5080290;28;19928;-55
2022/10/10 12:02:35;;;;;;;;;;;17.60;99.90;;;;;;5076901;28;20299;-55
2022/10/10 12:05:05;;;;;;;;;;;17.70;99.90;;;;;;5068995;28;20407;-55
2022/10/10 12:07:38;;;;;;;;;;;17.90;99.90;;;;;;5086451;28;19924;-55
2022/10/10 12:10:09;;;;;;;;;;;18.20;99.90;;;;;;5089145;28;19931;-55
2022/10/10 12:12:38;;;;;;;;;;;18.40;99.90;;;;;;5070916;28;20906;-55
2022/10/10 12:15:08;;;;;;;;;;;18.70;99.90;;;;;;5067749;28;19925;-55
2022/10/10 12:17:42;;;;;;;;;;;18.90;99.90;;;;;;5074804;28;20619;-55
2022/10/10 12:20:30;;;;;;;;;;;19.10;99.30;;;;;;5084139;28;19931;-55
2022/10/10 12:23:13;;;;;;;;;;;19.20;99.00;;;;;;5093892;28;19938;-55
2022/10/10 12:25:41;;;;;;;;;;;19.40;98.20;;;;;;5068375;28;19932;-55
2022/10/10 12:28:11;;;;;;;;;;;19.60;98.30;;;;;;5073161;28;19932;-55
2022/10/10 12:30:51;;;;;;;;;;;19.70;97.30;;;;;;5074170;28;19924;-55
2022/10/10 12:33:27;;;;;;;;;;;19.60;95.20;;;;;;5093680;28;19924;-55
2022/10/10 12:35:54;;;;;;;;;;;19.60;96.00;;;;;;5073693;28;19925;-55
2022/10/10 12:38:26;;;;;;;;;;;19.70;97.20;;;;;;5081667;28;19924;-55
2022/10/10 12:40:57;;;;;;;;;;;19.90;98.50;;;;;;5080975;28;19924;-57
2022/10/10 12:43:24;;;;;;;;;;;20.30;97.20;;;;;;5083375;28;19925;-57
2022/10/10 12:45:56;;;;;;;;;;;20.20;96.50;;;;;;5067923;28;19932;-57
2022/10/10 12:48:24;;;;;;;;;;;20.30;97.10;;;;;;5072467;28;19936;-57
2022/10/10 12:50:58;;;;;;;;;;;20.40;95.20;;;;;;5084841;28;20371;-57
2022/10/10 12:53:28;;;;;;;;;;;20.40;95.80;;;;;;5076115;28;20087;-57
2022/10/10 12:55:57;;;;;;;;;;;20.50;94.90;;;;;;5068253;28;20376;-57
2022/10/10 12:58:46;;;;;;;;;;;20.50;93.70;;;;;;5070275;28;19931;-57
2022/10/10 13:01:24;;;;;;;;;;;20.50;92.80;;;;;;5091696;28;20271;-57
2022/10/10 13:03:53;;;;;;;;;;;20.50;93.20;;;;;;5079106;28;19939;-57
2022/10/10 13:06:32;;;;;;;;;;;20.40;93.40;;;;;;5079869;28;19924;-57
2022/10/10 13:09:00;;;;;;;;;;;20.50;92.90;;;;;;5073794;28;19928;-57
2022/10/10 13:11:27;;;;;;;;;;;20.50;92.10;;;;;;5072909;28;19924;-57
2022/10/10 13:13:55;;;;;;;;;;;20.40;90.60;;;;;;5105789;28;20508;-57
2022/10/10 13:16:24;;;;;;;;;;;20.40;91.50;;;;;;5112397;28;20350;-58
2022/10/10 13:18:58;;;;;;;;;;;20.60;92.30;;;;;;5101393;28;19924;-57
2022/10/10 13:21:29;;;;;;;;;;;20.70;90.90;;;;;;5091497;28;19924;-57
2022/10/10 13:24:01;;;;;;;;;;;20.90;91.70;;;;;;5091515;28;19931;-57
2022/10/10 13:26:32;;;;;;;;;;;21.10;90.50;;;;;;5088251;28;19936;-57
2022/10/10 13:29:03;;;;;;;;;;;21.10;89.70;;;;;;5090285;28;19924;-57
2022/10/10 13:31:31;;;;;;;;;;;21.10;90.10;;;;;;5100712;28;19924;-60
2022/10/10 13:34:01;;;;;;;;;;;21.20;90.40;;;;;;5111488;28;19934;-57
2022/10/10 13:36:29;;;;;;;;;;;21.20;90.40;;;;;;5111745;28;19931;-57
2022/10/10 13:38:57;;;;;;;;;;;21.20;91.00;;;;;;5098278;28;19939;-57
2022/10/10 13:41:25;;;;;;;;;;;21.10;91.20;;;;;;5075245;28;19925;-57
2022/10/10 13:43:52;;;;;;;;;;;20.60;90.70;;;;;;5078260;28;20375;-56
2022/10/10 13:46:21;;;;;;;;;;;19.90;90.80;;;;;;5070809;28;19931;-57
2022/10/10 13:48:51;;;;;;;;;;;19.10;91.00;;;;;;5076965;28;19928;-57
2022/10/10 13:51:19;;;;;;;;;;;18.30;92.30;;;;;;5075840;28;19928;-57
2022/10/10 13:53:51;;;;;;;;;;;17.90;92.40;;;;;;5085248;28;19924;-55
2022/10/10 13:56:24;;;;;;;;;;;17.30;92.50;;;;;;5085547;28;19936;-57
2022/10/10 13:59:00;;;;;;;;;;;16.60;92.90;;;;;;5094238;28;19931;-55
2022/10/10 14:01:34;;;;;;;;;;;16.00;93.60;;;;;;5084418;28;20302;-55
2022/10/10 14:04:12;;;;;;;;;;;15.60;94.90;;;;;;5069016;28;19935;-54
2022/10/10 14:06:41;;;;;;;;;;;15.40;95.60;;;;;;5074662;28;19928;-55
2022/10/10 14:09:23;;;;;;;;;;;15.10;96.90;;;;;;5097555;28;20283;-55
2022/10/10 14:11:52;;;;;;;;;;;14.80;96.90;;;;;;5078725;28;19947;-55
2022/10/10 14:14:22;;;;;;;;;;;14.50;97.10;;;;;;5085655;28;19928;-55
2022/10/10 14:16:56;;;;;;;;;;;14.40;97.40;;;;;;5086634;28;20724;-54
2022/10/10 14:19:24;;;;;;;;;;;14.30;98.20;;;;;;5099184;28;20099;-55
2022/10/10 14:21:51;;;;;;;;;;;14.20;98.60;;;;;;5075656;28;19928;-55
2022/10/10 14:24:19;;;;;;;;;;;14.30;99.40;;;;;;5072742;28;20276;-55
2022/10/10 14:26:46;;;;;;;;;;;14.30;99.90;;;;;;5072669;28;19932;-55
2022/10/10 14:29:15;;;;;;;;;;;14.40;99.90;;;;;;5097867;28;19928;-54
2022/10/10 14:31:43;;;;;;;;;;;14.60;99.90;;;;;;5095258;28;19924;-55
2022/10/10 14:34:11;;;;;;;;;;;14.70;99.90;;;;;;5097922;28;19924;-55
2022/10/10 14:36:41;;;;;;;;;;;14.90;99.90;;;;;;5082297;28;19924;-54
2022/10/10 14:39:10;;;;;;;;;;;15.00;99.90;;;;;;5090544;28;19928;-54
2022/10/10 14:41:37;;;;;;;;;;;15.00;99.90;;;;;;5085389;28;19928;-55
2022/10/10 14:44:05;;;;;;;;;;;15.10;98.50;;;;;;5082081;28;19931;-55